Time;durP1;ratioP1;P1;durP2;ratioP2;P2;SDS_P1;SDS_P2;PMS_P1;PMS_P2;Temp;Humidity;BMP_temperature;BMP_pressure;BME280_temperature;BME280_humidity;BME280_pressure;Samples;Min_cycle;Max_cycle;Signal;HPM_P1;HPM_P2
2023/08/29 00:00:39;;;;;;;5.80;2.30;;;14.30;99.90;;;;;;4999786;28;20199;-82
2023/08/29 00:03:05;;;;;;;3.10;2.53;;;14.30;99.90;;;;;;4999109;28;20193;-82
2023/08/29 00:05:31;;;;;;;3.50;2.30;;;14.30;99.90;;;;;;5000244;28;20516;-82
2023/08/29 00:07:56;;;;;;;2.67;2.33;;;14.30;99.90;;;;;;5000155;28;20187;-83
2023/08/29 00:10:22;;;;;;;3.23;2.63;;;14.30;99.90;;;;;;5004455;28;21042;-78
2023/08/29 00:12:48;;;;;;;4.57;2.70;;;14.30;99.90;;;;;;5003349;28;21114;-85
2023/08/29 00:15:13;;;;;;;2.90;2.37;;;14.40;99.90;;;;;;5003711;28;20181;-82
2023/08/29 00:17:39;;;;;;;2.80;2.60;;;14.50;99.90;;;;;;5015338;28;20179;-82
2023/08/29 00:20:05;;;;;;;3.57;2.60;;;14.60;99.90;;;;;;5003903;28;20183;-79
2023/08/29 00:22:31;;;;;;;3.43;2.40;;;14.50;99.90;;;;;;4999502;28;20200;-80
2023/08/29 00:24:58;;;;;;;8.43;2.83;;;14.50;99.90;;;;;;5001966;28;21420;-80
2023/08/29 00:27:23;;;;;;;7.10;3.03;;;14.50;99.90;;;;;;5013765;28;20460;-77
2023/08/29 00:29:49;;;;;;;2.93;2.27;;;14.50;99.90;;;;;;5016536;28;20422;-77
2023/08/29 00:32:15;;;;;;;3.03;2.73;;;14.50;99.90;;;;;;5001471;28;20461;-82
2023/08/29 00:34:40;;;;;;;7.63;2.97;;;14.40;99.90;;;;;;4997946;28;20480;-81
2023/08/29 00:37:06;;;;;;;7.37;2.50;;;14.40;99.90;;;;;;4999921;28;20285;-81
2023/08/29 00:39:32;;;;;;;2.93;2.60;;;14.30;99.90;;;;;;4999048;28;20265;-82
2023/08/29 00:41:57;;;;;;;5.63;2.93;;;14.30;99.90;;;;;;4997889;28;20936;-81
2023/08/29 00:44:23;;;;;;;6.43;2.30;;;14.30;99.90;;;;;;5005199;28;20175;-76
2023/08/29 00:46:49;;;;;;;3.10;2.37;;;14.40;99.90;;;;;;5007590;28;20194;-85
2023/08/29 00:49:18;;;;;;;3.53;3.23;;;14.30;99.90;;;;;;5003364;28;20206;-83
2023/08/29 00:51:44;;;;;;;3.20;2.60;;;14.40;99.90;;;;;;5005553;28;20529;-81
2023/08/29 00:54:10;;;;;;;2.20;2.00;;;14.40;99.90;;;;;;5002269;28;20481;-83
2023/08/29 00:56:36;;;;;;;2.53;2.33;;;14.40;99.90;;;;;;5001159;28;21051;-82
2023/08/29 00:59:02;;;;;;;2.63;2.43;;;14.40;99.90;;;;;;4998766;28;20445;-77
2023/08/29 01:01:30;;;;;;;3.00;2.70;;;14.40;99.90;;;;;;4998471;28;20262;-81
2023/08/29 01:03:56;;;;;;;3.10;2.80;;;14.50;99.90;;;;;;4997797;28;20446;-80
2023/08/29 01:06:24;;;;;;;3.50;3.17;;;14.50;99.90;;;;;;4994064;28;20964;-78
2023/08/29 01:08:50;;;;;;;3.87;2.30;;;14.50;99.90;;;;;;5003334;28;20185;-81
2023/08/29 01:11:39;;;;;;;3.70;2.37;;;14.50;99.90;;;;;;4997671;28;20473;-82
2023/08/29 01:14:11;;;;;;;4.97;2.80;;;14.50;99.90;;;;;;4999997;28;20477;-81
2023/08/29 01:16:42;;;;;;;4.07;3.10;;;14.40;99.90;;;;;;4993019;28;20480;-81
2023/08/29 01:19:13;;;;;;;6.13;2.33;;;14.40;99.90;;;;;;4997645;28;21049;-84
2023/08/29 01:21:45;;;;;;;5.60;2.87;;;14.40;99.90;;;;;;4997198;28;20742;-79
2023/08/29 01:24:26;;;;;;;3.50;2.80;;;14.30;99.90;;;;;;4996556;28;20437;-81
2023/08/29 01:26:53;;;;;;;7.17;2.70;;;14.40;99.90;;;;;;5006586;28;20452;-83
2023/08/29 01:29:20;;;;;;;3.33;2.60;;;14.30;99.90;;;;;;4999713;28;20525;-78
2023/08/29 01:31:46;;;;;;;5.37;2.73;;;14.30;99.90;;;;;;5004439;28;20457;-82
2023/08/29 01:34:12;;;;;;;4.70;2.87;;;14.30;99.90;;;;;;5004379;28;20481;-80
2023/08/29 01:36:42;;;;;;;2.80;2.43;;;14.30;99.90;;;;;;5001908;28;20441;-80
2023/08/29 01:39:07;;;;;;;3.13;2.47;;;14.30;99.90;;;;;;4997981;28;20180;-80
2023/08/29 01:41:33;;;;;;;3.60;2.83;;;14.30;99.90;;;;;;5006802;28;22104;-80
2023/08/29 01:44:04;;;;;;;4.20;3.00;;;14.30;99.90;;;;;;5002405;28;20194;-82
2023/08/29 01:46:30;;;;;;;3.10;2.80;;;14.30;99.90;;;;;;5003543;28;20198;-81
2023/08/29 01:48:58;;;;;;;3.27;2.97;;;14.40;99.90;;;;;;4985999;28;20446;-83
2023/08/29 01:51:24;;;;;;;3.30;2.70;;;14.30;99.90;;;;;;5014676;28;20577;-79
2023/08/29 01:53:51;;;;;;;4.30;2.63;;;14.30;99.90;;;;;;5012406;28;20558;-83
2023/08/29 01:56:19;;;;;;;2.70;2.50;;;14.30;99.90;;;;;;5013943;28;20438;-83
2023/08/29 01:58:46;;;;;;;6.43;3.00;;;14.40;99.90;;;;;;5007729;28;20420;-82
2023/08/29 02:01:12;;;;;;;3.10;2.80;;;14.30;99.90;;;;;;5004985;28;20462;-82
2023/08/29 02:03:38;;;;;;;3.33;2.90;;;14.30;99.90;;;;;;5007961;28;20429;-80
2023/08/29 02:06:03;;;;;;;2.43;2.23;;;14.30;99.90;;;;;;5007776;28;20557;-84
2023/08/29 02:08:29;;;;;;;8.20;2.80;;;14.30;99.90;;;;;;5005178;28;20744;-82
2023/08/29 02:10:54;;;;;;;4.63;3.20;;;14.30;99.90;;;;;;5006362;28;20202;-82
2023/08/29 02:13:20;;;;;;;5.17;3.07;;;14.30;99.90;;;;;;5008841;28;20277;-81
2023/08/29 02:15:45;;;;;;;3.20;2.47;;;14.30;99.90;;;;;;5009084;28;20183;-84
2023/08/29 02:18:11;;;;;;;4.07;2.70;;;14.30;99.90;;;;;;5000789;28;20183;-80
2023/08/29 02:20:37;;;;;;;3.70;2.90;;;14.30;99.90;;;;;;5000709;28;20179;-83
2023/08/29 02:23:02;;;;;;;4.40;2.77;;;14.30;99.90;;;;;;5004086;28;20197;-82
2023/08/29 02:25:28;;;;;;;2.80;2.60;;;14.30;99.90;;;;;;5004484;28;20442;-80
2023/08/29 02:27:54;;;;;;;3.27;2.73;;;14.30;99.90;;;;;;5003687;28;20213;-82
2023/08/29 02:30:20;;;;;;;3.00;2.00;;;14.40;99.90;;;;;;4999847;28;20438;-82
2023/08/29 02:32:45;;;;;;;2.83;2.53;;;14.30;99.90;;;;;;5000489;28;20209;-83
2023/08/29 02:35:11;;;;;;;3.93;2.70;;;14.30;99.90;;;;;;4998973;28;20265;-80
2023/08/29 02:37:37;;;;;;;3.00;2.07;;;14.30;99.90;;;;;;5001151;28;20751;-84
2023/08/29 02:40:09;;;;;;;4.47;2.97;;;14.30;99.90;;;;;;5004149;28;20226;-79
2023/08/29 02:42:36;;;;;;;3.60;3.27;;;14.30;99.90;;;;;;5003592;28;20198;-81
2023/08/29 02:45:05;;;;;;;8.30;3.10;;;14.30;99.90;;;;;;5003457;28;20452;-80
2023/08/29 02:47:30;;;;;;;2.50;2.30;;;14.30;99.90;;;;;;5007715;28;20815;-82
2023/08/29 02:49:56;;;;;;;3.20;2.90;;;14.30;99.90;;;;;;4999961;28;20435;-80
2023/08/29 02:52:21;;;;;;;7.37;3.60;;;14.20;99.90;;;;;;5006529;28;20194;-79
2023/08/29 02:54:47;;;;;;;6.17;3.83;;;14.30;99.90;;;;;;5006558;28;20237;-84
2023/08/29 02:57:12;;;;;;;5.73;3.63;;;15.10;99.90;;;;;;5017779;28;20194;-80
2023/08/29 02:59:39;;;;;;;10.13;3.23;;;14.30;99.90;;;;;;5008811;28;20171;-80
2023/08/29 03:02:04;;;;;;;12.23;4.70;;;14.30;99.90;;;;;;5004856;28;20207;-80
2023/08/29 03:04:30;;;;;;;4.43;3.70;;;14.40;99.90;;;;;;5006265;28;20445;-80
2023/08/29 03:06:56;;;;;;;8.73;3.57;;;14.40;99.90;;;;;;5006521;28;20202;-78
2023/08/29 03:09:21;;;;;;;10.40;3.90;;;14.40;99.90;;;;;;5021427;28;20238;-78
2023/08/29 03:11:47;;;;;;;6.13;2.80;;;14.30;99.90;;;;;;5016366;28;20224;-81
2023/08/29 03:14:14;;;;;;;6.33;3.17;;;14.30;99.90;;;;;;5005183;28;20206;-81
2023/08/29 03:16:39;;;;;;;8.30;4.03;;;14.30;99.90;;;;;;5004798;28;20442;-83
2023/08/29 03:19:05;;;;;;;4.70;3.97;;;14.30;99.90;;;;;;5000154;28;20430;-80
2023/08/29 03:21:30;;;;;;;3.93;3.53;;;14.20;99.90;;;;;;5004302;28;20397;-78
2023/08/29 03:23:56;;;;;;;7.33;4.23;;;14.20;99.90;;;;;;5004818;28;20206;-82
2023/08/29 03:26:21;;;;;;;7.77;4.13;;;14.20;99.90;;;;;;4999855;28;20211;-82
2023/08/29 03:28:48;;;;;;;5.03;3.70;;;14.20;99.90;;;;;;5001367;28;20269;-85
2023/08/29 03:31:15;;;;;;;7.43;5.00;;;14.20;99.90;;;;;;5006205;28;20758;-79
2023/08/29 03:33:42;;;;;;;6.00;3.90;;;14.20;99.90;;;;;;5005084;28;20557;-79
2023/08/29 03:36:08;;;;;;;6.63;4.03;;;14.20;99.90;;;;;;5003212;28;20434;-81
2023/08/29 03:38:42;;;;;;;7.10;5.27;;;14.20;99.90;;;;;;5003068;28;20438;-81
2023/08/29 03:41:07;;;;;;;10.30;4.80;;;14.20;99.90;;;;;;4999820;28;20531;-79
2023/08/29 03:43:34;;;;;;;5.27;4.80;;;14.20;99.90;;;;;;5000108;28;21038;-81
2023/08/29 03:46:02;;;;;;;6.67;4.93;;;14.20;99.90;;;;;;5002349;28;20186;-79
2023/08/29 03:48:28;;;;;;;7.53;5.20;;;14.20;99.90;;;;;;5006329;28;21202;-82
2023/08/29 03:50:53;;;;;;;10.30;5.30;;;14.20;99.90;;;;;;4997611;28;20465;-81
2023/08/29 03:53:19;;;;;;;9.50;5.43;;;14.20;99.90;;;;;;4998684;28;20206;-82
2023/08/29 03:55:45;;;;;;;7.10;6.03;;;14.10;99.90;;;;;;5001679;28;20183;-80
2023/08/29 03:58:10;;;;;;;11.83;5.50;;;14.10;99.90;;;;;;4999925;28;20171;-79
2023/08/29 04:00:36;;;;;;;5.70;5.20;;;14.10;99.90;;;;;;5007553;28;20433;-83
2023/08/29 04:03:06;;;;;;;7.37;5.43;;;14.10;99.90;;;;;;5014624;28;20246;-78
2023/08/29 04:05:32;;;;;;;8.03;5.83;;;14.10;99.90;;;;;;5007672;28;20242;-79
2023/08/29 04:07:57;;;;;;;7.03;5.80;;;14.00;99.90;;;;;;5006741;28;20546;-84
2023/08/29 04:10:23;;;;;;;8.10;6.60;;;14.00;99.90;;;;;;5007262;28;20536;-81
2023/08/29 04:12:48;;;;;;;11.77;6.07;;;14.00;99.90;;;;;;5009466;28;20207;-80
2023/08/29 04:15:14;;;;;;;8.90;6.97;;;14.00;99.90;;;;;;5003571;28;20660;-79
2023/08/29 04:17:39;;;;;;;10.63;6.90;;;14.00;99.90;;;;;;5004437;28;20229;-82
2023/08/29 04:20:08;;;;;;;8.20;7.00;;;14.00;99.90;;;;;;5000674;28;20178;-80
2023/08/29 04:22:35;;;;;;;11.60;7.67;;;14.00;99.90;;;;;;5000536;28;20199;-84
2023/08/29 04:25:04;;;;;;;8.20;7.07;;;14.00;99.90;;;;;;5001465;28;20422;-81
2023/08/29 04:27:30;;;;;;;9.40;8.23;;;14.00;99.90;;;;;;5003778;28;20969;-82
2023/08/29 04:29:56;;;;;;;11.10;8.30;;;14.00;99.90;;;;;;5009872;28;20461;-80
2023/08/29 04:32:22;;;;;;;9.30;7.93;;;13.90;99.90;;;;;;4999289;28;20510;-80
2023/08/29 04:34:48;;;;;;;15.47;9.20;;;14.00;99.90;;;;;;4999627;28;20465;-84
2023/08/29 04:37:13;;;;;;;9.57;8.43;;;14.00;99.90;;;;;;4994355;28;20205;-82
2023/08/29 04:39:39;;;;;;;11.93;9.67;;;14.00;99.90;;;;;;4997082;28;20253;-83
2023/08/29 04:42:04;;;;;;;16.23;8.47;;;14.00;99.90;;;;;;5000791;28;20198;-80
2023/08/29 04:44:30;;;;;;;11.33;10.17;;;14.00;99.90;;;;;;4999889;28;20194;-82
2023/08/29 04:46:56;;;;;;;10.93;9.33;;;13.90;99.90;;;;;;5001242;28;20194;-81
2023/08/29 04:49:22;;;;;;;11.07;9.97;;;13.90;99.90;;;;;;4997192;28;20187;-77
2023/08/29 04:51:47;;;;;;;13.33;10.30;;;13.90;99.90;;;;;;5005607;28;20206;-83
2023/08/29 04:54:13;;;;;;;12.23;10.70;;;13.80;99.90;;;;;;5004621;28;20544;-83
2023/08/29 04:56:38;;;;;;;12.03;9.30;;;14.40;99.90;;;;;;5003586;28;20213;-83
2023/08/29 04:59:04;;;;;;;11.13;8.90;;;13.80;99.90;;;;;;4995815;28;20183;-77
2023/08/29 05:01:30;;;;;;;11.50;9.20;;;13.80;99.90;;;;;;5000323;28;20202;-81
2023/08/29 05:03:55;;;;;;;10.17;9.17;;;13.90;99.90;;;;;;5000295;28;20190;-80
2023/08/29 05:06:21;;;;;;;11.37;9.93;;;13.90;99.90;;;;;;4999396;28;20828;-82
2023/08/29 05:08:46;;;;;;;13.00;10.53;;;13.90;99.90;;;;;;4998283;28;20187;-81
2023/08/29 05:11:12;;;;;;;12.83;9.07;;;14.00;99.90;;;;;;5015226;28;20210;-78
2023/08/29 05:13:38;;;;;;;12.50;10.13;;;13.90;99.90;;;;;;5002269;28;20198;-84
2023/08/29 05:16:03;;;;;;;14.63;9.03;;;14.00;99.90;;;;;;5008518;28;20431;-84
2023/08/29 05:18:29;;;;;;;16.30;10.37;;;14.00;99.90;;;;;;5001858;28;20193;-82
2023/08/29 05:20:56;;;;;;;9.53;7.50;;;13.90;99.90;;;;;;5005325;28;20217;-82
2023/08/29 05:23:22;;;;;;;11.03;9.80;;;13.90;99.90;;;;;;5005055;28;20182;-80
2023/08/29 05:25:47;;;;;;;11.10;9.87;;;14.00;99.90;;;;;;5006368;28;20436;-80
2023/08/29 05:28:13;;;;;;;15.83;8.77;;;14.00;99.90;;;;;;5010170;28;20499;-81
2023/08/29 05:30:38;;;;;;;11.97;8.30;;;14.10;99.90;;;;;;5008710;28;20601;-83
2023/08/29 05:33:04;;;;;;;10.60;8.13;;;14.10;99.90;;;;;;5007608;28;20217;-82
2023/08/29 05:35:30;;;;;;;11.23;9.20;;;14.10;99.90;;;;;;5007961;28;20190;-84
2023/08/29 05:37:56;;;;;;;14.77;8.97;;;14.20;99.90;;;;;;5012795;28;20186;-80
2023/08/29 05:40:21;;;;;;;13.07;8.07;;;14.20;99.90;;;;;;5006690;28;20862;-81
2023/08/29 05:42:47;;;;;;;9.73;7.67;;;14.20;99.90;;;;;;4997107;28;20194;-82
2023/08/29 05:45:12;;;;;;;10.03;8.13;;;14.30;99.90;;;;;;5003587;28;20182;-82
2023/08/29 05:47:38;;;;;;;10.40;8.87;;;14.40;99.90;;;;;;5005655;28;20187;-81
2023/08/29 05:50:04;;;;;;;13.67;9.03;;;14.40;99.90;;;;;;5015220;28;20183;-79
2023/08/29 05:52:29;;;;;;;10.40;8.60;;;14.40;99.90;;;;;;5022438;28;20275;-79
2023/08/29 05:54:56;;;;;;;11.17;8.40;;;14.40;99.90;;;;;;5014155;28;20481;-83
2023/08/29 05:57:21;;;;;;;14.70;9.50;;;14.40;99.90;;;;;;5001913;28;20710;-78
2023/08/29 05:59:47;;;;;;;14.03;9.60;;;14.50;99.90;;;;;;5000323;28;20428;-79
2023/08/29 06:02:12;;;;;;;11.10;8.40;;;14.40;99.90;;;;;;5006012;28;20207;-80
2023/08/29 06:04:38;;;;;;;13.10;9.27;;;14.50;99.90;;;;;;5004044;28;20266;-81
2023/08/29 06:07:05;;;;;;;10.03;8.17;;;14.40;99.90;;;;;;5004419;28;20187;-79
2023/08/29 06:09:32;;;;;;;12.83;9.20;;;14.50;99.90;;;;;;5004588;28;20425;-80
2023/08/29 06:11:59;;;;;;;10.87;9.47;;;14.60;99.90;;;;;;5013855;28;20458;-80
2023/08/29 06:14:24;;;;;;;13.43;8.33;;;14.50;99.90;;;;;;5013358;28;21016;-80
2023/08/29 06:16:50;;;;;;;11.90;8.40;;;14.40;99.90;;;;;;5004936;28;20456;-83
2023/08/29 06:19:16;;;;;;;12.20;10.30;;;14.30;99.90;;;;;;5005424;28;20194;-80
2023/08/29 06:21:42;;;;;;;14.70;10.73;;;14.40;99.90;;;;;;4999908;28;20552;-81
2023/08/29 06:24:07;;;;;;;11.37;9.13;;;14.30;99.90;;;;;;5018763;28;20167;-80
2023/08/29 06:26:33;;;;;;;14.30;9.90;;;14.20;99.90;;;;;;5017793;28;20191;-81
2023/08/29 06:28:58;;;;;;;9.97;8.97;;;14.20;99.90;;;;;;5009405;28;20237;-80
2023/08/29 06:31:24;;;;;;;13.43;10.13;;;14.20;99.90;;;;;;5009810;28;20203;-81
2023/08/29 06:33:49;;;;;;;10.93;9.87;;;14.20;99.90;;;;;;5003590;28;20233;-83
2023/08/29 06:36:15;;;;;;;10.50;8.97;;;14.20;99.90;;;;;;5004398;28;20191;-80
2023/08/29 06:38:42;;;;;;;11.73;9.97;;;14.10;99.90;;;;;;5003996;28;20561;-77
2023/08/29 06:41:08;;;;;;;9.63;8.47;;;14.00;99.90;;;;;;5004471;28;20507;-84
2023/08/29 06:43:33;;;;;;;13.27;9.70;;;14.10;99.90;;;;;;5008128;28;20434;-80
2023/08/29 06:45:59;;;;;;;10.60;9.50;;;14.10;99.90;;;;;;5002830;28;20291;-83
2023/08/29 06:48:24;;;;;;;14.13;10.27;;;14.10;99.90;;;;;;5001526;28;20219;-82
2023/08/29 06:50:50;;;;;;;11.83;8.93;;;14.10;99.90;;;;;;5008676;28;20210;-82
2023/08/29 06:53:15;;;;;;;10.77;9.43;;;14.10;99.90;;;;;;5004564;28;20230;-82
2023/08/29 06:55:41;;;;;;;11.23;9.67;;;14.10;99.90;;;;;;5006934;28;20178;-83
2023/08/29 06:58:07;;;;;;;10.37;9.07;;;14.20;99.90;;;;;;5003252;28;20182;-78
2023/08/29 07:00:33;;;;;;;12.17;10.80;;;14.40;99.90;;;;;;4997624;28;20182;-78
2023/08/29 07:03:00;;;;;;;13.60;10.77;;;14.30;99.90;;;;;;4995520;28;20242;-84
2023/08/29 07:05:28;;;;;;;15.93;11.60;;;14.20;99.90;;;;;;4998645;28;20441;-79
2023/08/29 07:07:55;;;;;;;15.00;9.87;;;14.10;99.90;;;;;;5001667;28;20849;-79
2023/08/29 07:10:21;;;;;;;12.70;10.50;;;14.10;99.90;;;;;;5002110;28;20421;-81
2023/08/29 07:12:48;;;;;;;14.60;10.40;;;14.10;99.90;;;;;;5002768;28;20450;-80
2023/08/29 07:15:14;;;;;;;13.33;9.77;;;14.10;99.90;;;;;;4999854;28;20197;-80
2023/08/29 07:17:39;;;;;;;12.40;10.60;;;14.00;99.90;;;;;;5001419;28;20425;-82
2023/08/29 07:20:08;;;;;;;19.33;10.20;;;14.00;99.90;;;;;;5001390;28;20213;-79
2023/08/29 07:22:36;;;;;;;11.33;9.73;;;14.00;99.90;;;;;;5003048;28;20289;-80
2023/08/29 07:25:02;;;;;;;17.03;11.60;;;14.00;99.90;;;;;;4999572;28;20840;-81
2023/08/29 07:27:29;;;;;;;12.13;10.70;;;14.10;99.90;;;;;;5000996;28;21449;-83
2023/08/29 07:29:55;;;;;;;13.40;10.97;;;14.10;99.90;;;;;;5005681;28;20437;-79
2023/08/29 07:32:20;;;;;;;11.53;10.20;;;14.10;99.90;;;;;;5002685;28;20568;-79
2023/08/29 07:34:46;;;;;;;15.57;11.33;;;14.20;99.90;;;;;;5013967;28;20396;-76
2023/08/29 07:37:12;;;;;;;13.10;10.60;;;14.20;99.90;;;;;;5008377;28;20198;-81
2023/08/29 07:39:38;;;;;;;15.73;11.80;;;14.30;99.90;;;;;;5002737;28;20187;-82
2023/08/29 07:42:03;;;;;;;9.43;8.47;;;14.40;99.90;;;;;;5013309;28;20501;-81
2023/08/29 07:44:29;;;;;;;21.00;10.43;;;14.40;99.90;;;;;;5004346;28;20232;-79
2023/08/29 07:46:55;;;;;;;14.03;10.77;;;14.50;99.90;;;;;;5003055;28;20441;-81
2023/08/29 07:49:21;;;;;;;14.40;10.90;;;14.50;99.90;;;;;;5001383;28;20811;-78
2023/08/29 07:51:47;;;;;;;16.00;10.57;;;14.50;99.90;;;;;;5000781;28;20466;-82
2023/08/29 07:54:14;;;;;;;15.30;11.00;;;14.50;99.90;;;;;;5001306;28;20214;-80
2023/08/29 07:56:39;;;;;;;11.90;10.50;;;14.50;99.90;;;;;;5002213;28;20434;-80
2023/08/29 07:59:05;;;;;;;11.60;10.43;;;14.50;99.90;;;;;;5000293;28;20953;-82
2023/08/29 08:01:31;;;;;;;11.60;10.10;;;14.50;99.90;;;;;;5000348;28;20231;-80
2023/08/29 08:03:56;;;;;;;13.03;11.57;;;14.60;99.90;;;;;;4999952;28;20754;-81
2023/08/29 08:06:22;;;;;;;14.40;11.57;;;14.70;99.90;;;;;;5001995;28;20187;-82
2023/08/29 08:08:47;;;;;;;13.33;10.23;;;14.80;99.90;;;;;;5000649;28;20194;-82
2023/08/29 08:11:13;;;;;;;12.63;10.33;;;14.90;99.90;;;;;;5005217;28;21232;-84
2023/08/29 08:13:38;;;;;;;13.77;11.50;;;14.80;99.90;;;;;;5004349;28;20206;-77
2023/08/29 08:16:04;;;;;;;12.03;10.30;;;14.70;99.90;;;;;;5003471;28;20933;-81
2023/08/29 08:18:29;;;;;;;13.33;10.40;;;14.70;99.90;;;;;;5000898;28;20190;-83
2023/08/29 08:20:55;;;;;;;13.07;10.63;;;14.60;99.90;;;;;;4996509;28;20237;-80
2023/08/29 08:23:20;;;;;;;19.70;12.00;;;14.70;99.90;;;;;;4995568;28;20271;-81
2023/08/29 08:25:46;;;;;;;12.70;11.43;;;14.80;99.90;;;;;;4999447;28;20182;-82
2023/08/29 08:28:13;;;;;;;15.33;11.40;;;14.90;99.90;;;;;;5000199;28;20726;-80
2023/08/29 08:30:39;;;;;;;14.47;11.30;;;15.00;99.90;;;;;;4998133;28;20178;-83
2023/08/29 08:33:05;;;;;;;22.17;10.80;;;15.30;99.90;;;;;;5003352;28;20564;-81
2023/08/29 08:35:31;;;;;;;14.33;10.50;;;15.30;99.90;;;;;;5004160;28;20211;-82
2023/08/29 08:37:56;;;;;;;14.87;12.90;;;15.30;99.90;;;;;;4999729;28;21022;-83
2023/08/29 08:40:22;;;;;;;11.70;10.47;;;15.30;99.90;;;;;;4998245;28;20421;-82
2023/08/29 08:42:48;;;;;;;14.33;12.70;;;15.30;99.90;;;;;;4998172;28;20198;-83
2023/08/29 08:45:14;;;;;;;12.80;10.57;;;15.40;99.90;;;;;;4994979;28;20187;-81
2023/08/29 08:47:40;;;;;;;16.30;12.33;;;15.60;99.90;;;;;;4993275;28;20312;-82
2023/08/29 08:50:10;;;;;;;14.40;12.90;;;15.60;99.90;;;;;;4992532;28;21027;-82
2023/08/29 08:52:38;;;;;;;14.37;12.40;;;15.50;99.90;;;;;;5013618;28;20207;-81
2023/08/29 08:55:05;;;;;;;12.27;10.73;;;15.60;99.90;;;;;;5008950;28;20428;-80
2023/08/29 08:57:31;;;;;;;17.13;12.57;;;15.70;99.90;;;;;;5004864;28;21373;-83
2023/08/29 08:59:57;;;;;;;13.87;12.37;;;17.20;99.90;;;;;;4999071;28;20431;-83
2023/08/29 09:02:24;;;;;;;13.00;11.60;;;15.80;99.90;;;;;;4998999;28;20588;-83
2023/08/29 09:04:49;;;;;;;16.03;14.33;;;16.10;99.90;;;;;;4995522;28;20282;-85
2023/08/29 09:07:15;;;;;;;12.37;11.10;;;16.50;99.90;;;;;;4999713;28;20509;-80
2023/08/29 09:09:41;;;;;;;14.90;11.67;;;16.50;99.90;;;;;;5005297;28;20254;-84
2023/08/29 09:12:06;;;;;;;16.43;12.37;;;16.60;99.90;;;;;;5000324;28;20637;-79
2023/08/29 09:14:32;;;;;;;17.00;11.60;;;16.60;99.90;;;;;;4997521;28;20210;-81
2023/08/29 09:16:59;;;;;;;14.00;11.73;;;16.50;99.90;;;;;;4999030;28;20190;-80
2023/08/29 09:19:25;;;;;;;11.70;10.30;;;17.20;99.90;;;;;;5004775;28;20190;-81
2023/08/29 09:21:51;;;;;;;13.93;11.27;;;17.60;99.90;;;;;;4994711;28;20446;-84
2023/08/29 09:24:32;;;;;;;12.70;11.47;;;17.60;99.90;;;;;;4996295;28;20457;-84
2023/08/29 09:26:58;;;;;;;15.43;11.97;;;18.00;99.90;;;;;;5005716;28;20195;-81
2023/08/29 09:29:24;;;;;;;12.40;10.70;;;17.80;99.90;;;;;;4998203;28;21646;-82
2023/08/29 09:31:50;;;;;;;18.60;10.60;;;18.10;99.90;;;;;;4997824;28;20198;-82
2023/08/29 09:34:27;;;;;;;14.00;12.40;;;18.40;99.90;;;;;;5002983;28;20848;-82
2023/08/29 09:36:53;;;;;;;12.20;11.00;;;18.50;99.90;;;;;;5001939;28;20436;-80
2023/08/29 09:39:19;;;;;;;12.23;10.97;;;18.20;99.90;;;;;;5000401;28;20516;-83
2023/08/29 09:41:58;;;;;;;16.13;11.07;;;17.80;99.90;;;;;;4999503;28;20453;-78
2023/08/29 09:44:24;;;;;;;13.40;11.10;;;17.70;99.90;;;;;;5006587;28;20428;-82
2023/08/29 09:46:49;;;;;;;12.53;10.33;;;17.90;99.90;;;;;;5001188;28;20500;-79
2023/08/29 09:49:15;;;;;;;14.70;9.40;;;18.30;99.90;;;;;;4999311;28;20211;-80
2023/08/29 09:51:41;;;;;;;15.07;12.13;;;18.10;99.90;;;;;;4997939;28;20262;-84
2023/08/29 09:54:10;;;;;;;21.53;12.50;;;17.80;99.90;;;;;;5005282;28;20213;-81
2023/08/29 09:56:41;;;;;;;14.50;13.00;;;17.80;99.90;;;;;;5000672;28;21413;-80
2023/08/29 09:59:12;;;;;;;13.90;11.50;;;17.70;99.90;;;;;;4994869;28;20865;-79
2023/08/29 10:01:42;;;;;;;17.90;10.77;;;17.60;99.90;;;;;;4995163;28;20488;-81
2023/08/29 10:04:11;;;;;;;12.23;11.10;;;17.90;99.90;;;;;;4997033;28;20512;-78
2023/08/29 10:06:39;;;;;;;14.70;11.63;;;18.00;99.90;;;;;;5019643;28;20587;-84
2023/08/29 10:09:05;;;;;;;19.90;11.97;;;18.30;99.90;;;;;;5009740;28;20435;-82
2023/08/29 10:11:31;;;;;;;11.40;8.57;;;18.50;99.90;;;;;;5006889;28;20445;-83
2023/08/29 10:13:58;;;;;;;9.83;8.83;;;18.90;99.90;;;;;;5012757;28;20496;-84
2023/08/29 10:16:25;;;;;;;9.17;8.27;;;19.00;99.90;;;;;;5002374;28;20460;-82
2023/08/29 10:18:51;;;;;;;10.47;9.47;;;19.00;99.90;;;;;;5002859;28;20866;-84
2023/08/29 10:21:21;;;;;;;12.50;10.63;;;19.10;99.90;;;;;;5004674;28;20454;-78
2023/08/29 10:23:51;;;;;;;10.83;9.83;;;18.80;99.90;;;;;;5026765;28;20452;-80
2023/08/29 10:26:21;;;;;;;10.47;8.50;;;18.70;99.90;;;;;;5003471;28;20475;-81
2023/08/29 10:28:49;;;;;;;11.10;8.63;;;18.60;99.90;;;;;;5000904;28;20495;-82
2023/08/29 10:31:15;;;;;;;8.17;7.37;;;18.20;99.90;;;;;;5000427;28;21336;-81
2023/08/29 10:33:41;;;;;;;10.73;8.80;;;18.20;99.90;;;;;;5000474;28;20905;-79
2023/08/29 10:36:10;;;;;;;10.13;8.70;;;18.00;99.90;;;;;;4999793;28;20465;-83
2023/08/29 10:38:40;;;;;;;11.07;9.27;;;18.30;99.90;;;;;;4999231;28;20278;-81
2023/08/29 10:41:10;;;;;;;13.80;9.60;;;;;;;;;;4999422;28;20804;-80
2023/08/29 10:43:36;;;;;;;9.87;8.80;;;18.10;99.90;;;;;;4998694;28;20450;-80
2023/08/29 10:46:11;;;;;;;10.13;9.17;;;17.70;99.90;;;;;;5004183;28;20453;-82
2023/08/29 10:48:39;;;;;;;11.30;9.20;;;17.30;99.90;;;;;;4997011;28;20190;-82
2023/08/29 10:51:19;;;;;;;12.13;10.93;;;17.70;99.90;;;;;;4995866;28;20457;-80
2023/08/29 10:53:51;;;;;;;17.50;11.00;;;17.70;99.90;;;;;;5006878;28;20453;-80
2023/08/29 10:56:19;;;;;;;12.53;10.97;;;17.70;99.90;;;;;;5005951;28;20454;-84
2023/08/29 10:58:47;;;;;;;13.57;10.60;;;17.70;99.90;;;;;;5004148;28;20447;-81
2023/08/29 11:01:28;;;;;;;13.80;10.43;;;18.00;99.90;;;;;;5001062;28;20458;-80
2023/08/29 11:03:55;;;;;;;10.30;9.40;;;18.10;99.90;;;;;;4997847;28;20437;-84
2023/08/29 11:06:25;;;;;;;12.97;10.87;;;18.50;99.90;;;;;;5000740;28;20437;-82
2023/08/29 11:09:10;;;;;;;12.57;9.60;;;18.70;99.90;;;;;;4999409;28;20573;-84
2023/08/29 11:11:36;;;;;;;11.30;10.10;;;18.80;99.90;;;;;;5004657;28;20441;-80
2023/08/29 11:14:03;;;;;;;11.90;8.43;;;18.50;99.90;;;;;;5001726;28;20465;-82
2023/08/29 11:16:37;;;;;;;11.47;10.30;;;18.90;99.90;;;;;;5010335;28;20174;-80
2023/08/29 11:19:15;;;;;;;10.87;9.17;;;18.70;99.90;;;;;;5010322;28;20473;-77
2023/08/29 11:21:45;;;;;;;12.13;9.40;;;18.60;99.90;;;;;;5007930;28;20456;-82
2023/08/29 11:24:11;;;;;;;11.07;10.00;;;18.50;99.90;;;;;;5008843;28;20493;-84
2023/08/29 11:26:43;;;;;;;13.43;10.93;;;18.40;99.90;;;;;;5004211;28;20452;-84
2023/08/29 11:29:08;;;;;;;13.53;10.70;;;18.30;99.90;;;;;;5004240;28;20505;-84
2023/08/29 11:31:42;;;;;;;13.50;9.87;;;18.50;99.90;;;;;;5000389;28;21112;-85
2023/08/29 11:34:15;;;;;;;12.67;11.37;;;18.20;99.90;;;;;;5005534;28;20912;-83
2023/08/29 11:36:42;;;;;;;14.40;11.50;;;18.40;99.90;;;;;;5006651;28;20459;-81
2023/08/29 11:39:08;;;;;;;11.27;10.10;;;18.60;99.90;;;;;;4998978;28;20520;-84
2023/08/29 11:41:34;;;;;;;10.63;9.50;;;18.60;99.90;;;;;;4995441;28;20453;-83
2023/08/29 11:44:00;;;;;;;12.63;10.30;;;18.10;99.90;;;;;;4999427;28;20197;-80
2023/08/29 11:46:32;;;;;;;12.70;10.00;;;17.70;99.90;;;;;;4999186;28;20438;-81
2023/08/29 11:48:58;;;;;;;12.07;10.00;;;18.00;99.90;;;;;;4994343;28;20178;-81
2023/08/29 11:51:23;;;;;;;9.90;8.10;;;18.10;99.90;;;;;;4993290;28;21157;-84
2023/08/29 11:53:51;;;;;;;6.27;4.80;;;17.70;99.90;;;;;;5002640;28;20436;-84
2023/08/29 11:56:16;;;;;;;6.13;5.50;;;17.60;99.90;;;;;;4997185;28;20175;-83
2023/08/29 11:58:42;;;;;;;7.67;6.17;;;17.50;99.90;;;;;;5005971;28;20596;-80
2023/08/29 12:01:08;;;;;;;6.97;6.07;;;17.40;99.90;;;;;;5005846;28;20194;-83
2023/08/29 12:03:38;;;;;;;4.83;4.33;;;17.20;99.90;;;;;;5002068;28;20276;-83
2023/08/29 12:06:10;;;;;;;4.57;3.90;;;16.90;99.90;;;;;;5000539;28;20403;-83
2023/08/29 12:08:39;;;;;;;4.83;3.80;;;16.90;99.90;;;;;;5001081;28;20445;-82
2023/08/29 12:11:06;;;;;;;3.63;3.33;;;16.90;99.90;;;;;;4996615;28;20472;-81
2023/08/29 12:13:33;;;;;;;7.23;4.27;;;16.90;99.90;;;;;;4997619;28;20519;-81
2023/08/29 12:15:59;;;;;;;5.73;3.20;;;16.90;99.90;;;;;;5008227;28;20922;-82
2023/08/29 12:18:25;;;;;;;13.57;4.67;;;16.80;99.90;;;;;;5001958;28;20496;-81
2023/08/29 12:21:11;;;;;;;5.97;5.47;;;16.80;99.90;;;;;;5007372;28;20208;-82
2023/08/29 12:23:37;;;;;;;9.27;5.40;;;16.70;99.90;;;;;;5011051;28;20441;-83
2023/08/29 12:26:03;;;;;;;11.80;6.27;;;16.60;99.90;;;;;;5017512;28;20507;-83
2023/08/29 12:28:28;;;;;;;6.90;5.80;;;16.60;99.90;;;;;;5001385;28;20704;-82
2023/08/29 12:30:56;;;;;;;7.50;6.37;;;16.40;99.90;;;;;;5000113;28;20453;-83
2023/08/29 12:33:22;;;;;;;8.13;6.67;;;16.30;99.90;;;;;;5001980;28;20210;-81
2023/08/29 12:35:49;;;;;;;5.50;5.00;;;16.20;99.90;;;;;;5004206;28;20866;-83